Time;durP1;ratioP1;P1;durP2;ratioP2;P2;SDS_P1;SDS_P2;PMS_P1;PMS_P2;Temp;Humidity;BMP_temperature;BMP_pressure;BME280_temperature;BME280_humidity;BME280_pressure;Samples;Min_cycle;Max_cycle;Signal;HPM_P1;HPM_P2
2021/05/05 00:00:02;;;;;;;6.28;2.45;;;;;;;16.06;36.81;97850.53;263051;1104;114895;-65
2021/05/05 00:05:34;;;;;;;6.43;2.50;;;;;;;16.05;36.86;97844.33;263342;1100;114309;-65
2021/05/05 00:10:39;;;;;;;4.05;2.55;;;;;;;16.07;37.29;97841.50;263317;1104;114780;-65
2021/05/05 00:15:42;;;;;;;7.08;2.23;;;;;;;16.00;38.17;97835.93;262920;1100;114444;-65
2021/05/05 00:20:46;;;;;;;6.85;2.40;;;;;;;15.88;38.62;97833.66;262896;1104;114548;-62
2021/05/05 00:25:49;;;;;;;3.98;2.60;;;;;;;15.72;39.41;97834.39;262614;1100;114376;-65
2021/05/05 00:30:53;;;;;;;7.50;2.60;;;;;;;15.57;39.50;97823.37;262688;1105;114827;-65
2021/05/05 00:35:56;;;;;;;9.13;2.98;;;;;;;15.45;40.18;97820.08;262653;1100;114731;-65
2021/05/05 00:40:59;;;;;;;6.93;2.63;;;;;;;15.36;40.18;97819.19;262724;1105;114800;-65
2021/05/05 00:46:03;;;;;;;11.00;2.78;;;;;;;15.25;40.33;97814.09;263116;1100;114766;-65
2021/05/05 00:51:07;;;;;;;7.15;2.58;;;;;;;15.17;40.82;97815.84;262503;1105;115000;-66
2021/05/05 00:56:10;;;;;;;6.50;2.63;;;;;;;15.11;41.28;97818.16;262769;1100;114489;-65
2021/05/05 01:01:15;;;;;;;6.13;2.65;;;;;;;15.03;41.33;97812.70;262798;1105;114637;-65
2021/05/05 01:06:19;;;;;;;8.03;2.90;;;;;;;14.95;42.20;97814.48;262825;1100;114623;-65
2021/05/05 01:11:23;;;;;;;8.30;2.90;;;;;;;14.86;42.01;97803.67;261952;1104;114762;-63
2021/05/05 01:16:27;;;;;;;12.50;3.10;;;;;;;14.79;42.86;97805.27;262741;1100;114441;-63
2021/05/05 01:21:35;;;;;;;13.75;3.00;;;;;;;14.74;43.15;97802.22;262323;1103;114599;-63
2021/05/05 01:26:40;;;;;;;10.00;3.38;;;;;;;14.73;43.45;97797.84;262700;1100;114819;-65
2021/05/05 01:31:45;;;;;;;9.50;2.70;;;;;;;14.76;43.13;97785.98;262631;1105;114974;-64
2021/05/05 01:36:49;;;;;;;6.05;2.65;;;;;;;14.86;42.68;97779.56;262779;1100;114909;-64
2021/05/05 01:41:52;;;;;;;5.33;2.70;;;;;;;15.00;41.74;97771.98;262655;1105;114887;-64
2021/05/05 01:46:58;;;;;;;3.73;1.87;;;;;;;15.10;41.33;97775.42;262597;1100;114576;-64
2021/05/05 01:52:06;;;;;;;5.13;1.98;;;;;;;15.20;41.45;97770.81;262813;1104;115115;-64
2021/05/05 01:57:36;;;;;;;6.03;1.90;;;;;;;15.28;41.23;97764.66;262726;1100;114598;-64
2021/05/05 02:02:44;;;;;;;5.33;2.08;;;;;;;15.37;41.05;97772.61;262985;1097;114600;-64
2021/05/05 02:07:57;;;;;;;6.15;2.00;;;;;;;15.42;41.26;97757.89;262945;1100;114634;-64
2021/05/05 02:13:01;;;;;;;4.30;1.93;;;;;;;15.45;40.94;97762.94;262649;1105;114670;-65
2021/05/05 02:18:06;;;;;;;3.85;2.15;;;;;;;15.48;41.08;97752.73;262637;1100;114464;-64
2021/05/05 02:23:10;;;;;;;4.08;2.45;;;;;;;15.51;41.06;97752.42;262735;1105;114569;-64
2021/05/05 02:28:14;;;;;;;2.48;1.83;;;;;;;15.53;40.75;97761.16;262987;1100;114634;-64
2021/05/05 02:33:29;;;;;;;;;;;;;;;15.53;40.83;97750.44;262977;1105;114512;-64
2021/05/05 02:38:41;;;;;;;6.53;2.30;;;;;;;15.49;41.10;97740.17;262605;1101;101142;-64
2021/05/05 02:43:47;;;;;;;6.17;2.57;;;;;;;15.50;41.31;97734.66;262527;1105;114788;-64
2021/05/05 02:48:50;;;;;;;7.55;2.08;;;;;;;15.50;41.09;97728.47;262343;1100;114608;-64
2021/05/05 02:53:54;;;;;;;6.60;2.43;;;;;;;15.50;41.09;97728.47;262456;1104;114660;-63
2021/05/05 02:58:57;;;;;;;6.90;2.48;;;;;;;15.49;40.75;97721.41;262289;1100;114548;-63
2021/05/05 03:04:00;;;;;;;5.78;2.00;;;;;;;15.48;40.85;97722.41;262663;1105;115755;-65
2021/05/05 03:09:06;;;;;;;4.55;2.10;;;;;;;15.49;41.21;97724.08;262978;1100;114704;-65
2021/05/05 03:14:09;;;;;;;6.40;2.15;;;;;;;15.49;41.02;97724.08;262041;1105;115187;-71
2021/05/05 03:19:12;;;;;;;4.40;2.28;;;;;;;15.52;41.28;97726.45;262673;1100;114766;-66
2021/05/05 03:24:15;;;;;;;5.90;2.55;;;;;;;15.53;40.96;97725.47;262683;1105;114449;-72
2021/05/05 03:29:19;;;;;;;7.48;2.20;;;;;;;15.57;40.86;97722.30;262717;1100;114775;-66
2021/05/05 03:34:21;;;;;;;10.50;2.30;;;;;;;15.59;41.37;97722.13;262212;1105;114545;-64
2021/05/05 03:39:24;;;;;;;5.98;2.10;;;;;;;15.59;40.66;97711.41;262341;1100;114824;-68
2021/05/05 03:44:27;;;;;;;5.95;2.03;;;;;;;15.59;40.64;97706.91;262563;1105;115092;-65
2021/05/05 03:49:31;;;;;;;6.03;2.18;;;;;;;15.63;40.93;97710.11;262601;1100;114492;-65
2021/05/05 03:54:34;;;;;;;6.58;2.60;;;;;;;15.64;40.35;97709.09;262680;1105;114978;-65
2021/05/05 03:59:45;;;;;;;6.13;2.10;;;;;;;15.67;40.84;97714.17;262686;1100;114987;-65
2021/05/05 04:04:48;;;;;;;5.28;2.18;;;;;;;15.69;40.66;97716.69;262564;1105;114602;-73
2021/05/05 04:09:51;;;;;;;11.75;3.23;;;;;;;15.70;40.73;97721.07;263408;1100;114700;-73
2021/05/05 04:14:55;;;;;;;4.28;1.98;;;;;;;15.67;41.26;97719.55;262603;1105;114685;-70
2021/05/05 04:20:19;;;;;;;7.85;2.40;;;;;;;15.68;40.97;97717.70;262601;1100;114700;-71
2021/05/05 04:25:40;;;;;;;5.48;2.15;;;;;;;15.67;40.99;97718.70;262799;1104;114946;-70
2021/05/05 04:30:43;;;;;;;6.18;2.65;;;;;;;15.68;41.13;97731.94;263010;1100;114677;-71
2021/05/05 04:35:46;;;;;;;7.30;2.60;;;;;;;15.71;40.89;97720.06;262230;1105;114615;-70
2021/05/05 04:40:49;;;;;;;9.68;2.25;;;;;;;15.71;40.78;97725.42;262727;1100;114939;-70
2021/05/05 04:45:52;;;;;;;5.97;2.20;;;;;;;15.72;41.03;97727.94;262653;1105;114631;-70
2021/05/05 04:50:56;;;;;;;11.43;2.50;;;;;;;15.73;41.07;97718.07;262541;1100;115227;-71
2021/05/05 04:55:59;;;;;;;8.18;2.40;;;;;;;15.75;40.81;97716.05;262917;1104;114854;-72
2021/05/05 05:01:03;;;;;;;7.63;2.23;;;;;;;15.77;41.11;97720.27;263186;1100;114723;-65
2021/05/05 05:06:06;;;;;;;7.85;2.68;;;;;;;15.81;41.03;97718.09;262679;1102;114680;-66
2021/05/05 05:11:09;;;;;;;7.00;2.50;;;;;;;15.85;40.84;97724.81;261622;1100;114781;-73
2021/05/05 05:16:12;;;;;;;8.30;2.70;;;;;;;15.90;41.04;97735.09;262435;1105;115116;-67
2021/05/05 05:21:16;;;;;;;7.33;2.68;;;;;;;15.92;40.91;97733.90;262638;1100;114840;-68
2021/05/05 05:26:19;;;;;;;8.60;2.20;;;;;;;15.97;41.16;97728.08;263052;1105;114679;-68
2021/05/05 05:31:22;;;;;;;7.78;2.55;;;;;;;16.01;40.91;97734.79;262754;1099;115008;-73
2021/05/05 05:36:25;;;;;;;5.45;2.30;;;;;;;16.06;41.04;97735.13;262902;1104;114409;-67
2021/05/05 05:41:29;;;;;;;4.77;2.27;;;;;;;16.11;40.72;97742.72;262829;1100;114477;-68
2021/05/05 05:46:32;;;;;;;4.85;2.38;;;;;;;16.15;40.78;97744.91;263141;1104;114565;-73
2021/05/05 05:51:36;;;;;;;5.95;2.53;;;;;;;16.18;40.72;97749.95;262235;1100;114623;-73
2021/05/05 05:56:39;;;;;;;6.93;2.40;;;;;;;16.20;40.66;97739.03;260064;1105;115668;-68
2021/05/05 06:01:42;;;;;;;9.78;2.50;;;;;;;16.23;40.85;97736.87;262821;1105;114438;-67
2021/05/05 06:06:46;;;;;;;14.75;2.73;;;;;;;16.30;40.97;97742.42;262848;1105;116712;-66
2021/05/05 06:11:51;;;;;;;12.85;2.53;;;;;;;16.35;40.88;97734.73;261307;1105;114745;-74
2021/05/05 06:16:54;;;;;;;8.70;2.68;;;;;;;16.45;40.75;97732.75;262235;1101;114765;-71
2021/05/05 06:21:57;;;;;;;10.85;2.95;;;;;;;16.55;40.71;97732.61;262910;1105;115153;-72
2021/05/05 06:27:01;;;;;;;7.35;2.15;;;;;;;16.64;40.81;97730.75;262645;1102;115167;-74
2021/05/05 06:32:05;;;;;;;8.35;2.18;;;;;;;16.69;40.45;97723.89;260106;1105;115478;-67
2021/05/05 06:37:08;;;;;;;7.93;2.43;;;;;;;16.76;40.69;97724.94;262652;1101;115005;-71
2021/05/05 06:42:11;;;;;;;8.23;2.30;;;;;;;16.84;40.61;97715.20;260979;1105;114598;-72
2021/05/05 06:47:15;;;;;;;6.18;2.23;;;;;;;16.89;40.14;97705.64;259822;1100;114773;-74
2021/05/05 06:52:18;;;;;;;6.78;1.93;;;;;;;17.02;40.14;97700.59;263085;1104;114533;-65
2021/05/05 06:57:22;;;;;;;4.63;2.15;;;;;;;17.17;40.11;97681.92;262818;1100;114539;-66
2021/05/05 07:02:27;;;;;;;4.83;2.10;;;;;;;17.28;40.21;97688.79;260635;1100;114968;-67
2021/05/05 07:07:31;;;;;;;3.70;2.00;;;;;;;17.37;39.79;97678.88;262183;1101;115502;-74
2021/05/05 07:20:12;;;;;;;;;;;;;;;17.57;39.99;97661.33;262187;1104;114506;-67
2021/05/05 07:25:17;;;;;;;5.70;1.85;;;;;;;17.61;39.55;97648.37;262873;1105;101744;-67
2021/05/05 07:30:20;;;;;;;5.35;1.93;;;;;;;17.69;39.17;97651.02;262005;1102;114534;-66
2021/05/05 07:35:24;;;;;;;5.10;1.98;;;;;;;17.76;39.37;97643.09;261194;1104;114480;-66
2021/05/05 07:46:04;;;;;;;5.00;2.20;;;;;;;18.03;39.11;97622.97;262557;1100;114857;-68
2021/05/05 07:51:08;;;;;;;4.50;1.60;;;;;;;18.25;38.82;97616.78;262804;1105;117457;-68
2021/05/05 07:56:10;;;;;;;3.78;1.70;;;;;;;18.38;38.27;97605.41;262932;1100;114464;-69
2021/05/05 08:01:17;;;;;;;5.68;1.85;;;;;;;18.42;38.15;97604.03;262819;1105;114914;-68
2021/05/05 08:06:22;;;;;;;4.60;1.65;;;;;;;18.48;37.38;97599.76;262127;1100;114512;-68
2021/05/05 08:11:26;;;;;;;6.00;1.63;;;;;;;18.51;36.88;97594.02;261952;1104;115543;-67
2021/05/05 08:16:29;;;;;;;4.55;1.48;;;;;;;18.53;36.95;97594.68;262794;1104;114752;-67
2021/05/05 08:21:32;;;;;;;2.70;1.50;;;;;;;18.56;36.59;97591.63;262590;1100;114691;-67
2021/05/05 08:26:36;;;;;;;4.93;1.80;;;;;;;18.58;36.30;97594.96;261961;1100;114592;-67
2021/05/05 08:31:40;;;;;;;5.68;1.60;;;;;;;18.57;36.23;97594.13;262730;1102;114730;-67
2021/05/05 08:36:43;;;;;;;4.88;1.70;;;;;;;18.60;36.06;97587.55;262520;1105;114723;-67
2021/05/05 08:41:52;;;;;;;3.78;1.75;;;;;;;18.71;36.63;97584.41;262371;1100;115127;-67
2021/05/05 08:47:03;;;;;;;5.53;1.63;;;;;;;18.86;36.62;97573.70;262737;1105;115122;-67
2021/05/05 08:52:10;;;;;;;7.70;1.63;;;;;;;18.98;36.64;97564.13;262098;1101;114670;-69
2021/05/05 08:57:15;;;;;;;2.05;1.70;;;;;;;19.10;36.47;97551.87;262011;1105;114542;-67
2021/05/05 09:02:20;;;;;;;5.58;2.20;;;;;;;19.13;36.43;97554.20;263078;1100;114487;-66
2021/05/05 09:07:32;;;;;;;4.05;1.60;;;;;;;19.23;36.37;97547.70;262859;1105;115039;-66
2021/05/05 09:12:38;;;;;;;3.60;1.68;;;;;;;19.24;35.88;97550.19;262222;1104;114607;-66
2021/05/05 09:17:52;;;;;;;3.85;1.88;;;;;;;19.26;35.44;97545.46;262820;1100;115090;-66
2021/05/05 09:23:04;;;;;;;3.20;2.03;;;;;;;19.36;35.67;97546.01;262752;1104;114640;-66
2021/05/05 09:28:25;;;;;;;6.78;1.90;;;;;;;19.43;34.97;97529.91;262792;1099;115049;-71
2021/05/05 09:33:32;;;;;;;4.20;1.40;;;;;;;19.48;34.99;97523.94;261765;1105;117067;-67
2021/05/05 09:38:50;;;;;;;4.40;2.00;;;;;;;19.55;35.47;97509.48;262679;1100;114595;-68
2021/05/05 09:43:59;;;;;;;6.20;2.20;;;;;;;19.59;35.31;97508.08;261859;1105;114594;-68
2021/05/05 09:49:29;;;;;;;3.33;1.75;;;;;;;19.69;34.88;97497.02;262403;1099;114730;-68
2021/05/05 09:54:36;;;;;;;6.53;2.08;;;;;;;19.84;35.31;97488.88;262895;1105;114289;-74
2021/05/05 10:00:07;;;;;;;4.55;2.15;;;;;;;19.98;34.68;97487.98;262824;1100;115064;-72
2021/05/05 10:05:27;;;;;;;6.30;2.10;;;;;;;20.06;34.37;97490.54;261932;1105;115072;-74
2021/05/05 10:10:34;;;;;;;3.58;1.90;;;;;;;20.24;35.25;97484.66;262629;1100;114864;-67
2021/05/05 10:15:39;;;;;;;3.03;1.83;;;;;;;20.42;34.70;97459.06;261722;1105;114385;-67
2021/05/05 10:20:44;;;;;;;4.00;1.60;;;;;;;20.45;34.61;97456.80;262795;1100;114530;-68
2021/05/05 10:25:51;;;;;;;8.50;6.10;;;;;;;20.57;35.11;97451.70;260663;1105;114652;-68
2021/05/05 10:30:55;;;;;;;7.73;4.20;;;;;;;20.69;35.03;97442.02;261649;1100;114664;-68
2021/05/05 10:36:27;;;;;;;4.28;2.30;;;;;;;20.89;34.89;97444.84;262542;1100;114679;-73
2021/05/05 10:41:31;;;;;;;5.18;2.35;;;;;;;21.11;34.92;97448.27;262403;1103;114494;-66
2021/05/05 10:46:42;;;;;;;4.60;2.20;;;;;;;21.28;34.60;97434.39;262772;1105;114901;-66
2021/05/05 10:51:46;;;;;;;4.85;2.13;;;;;;;21.42;34.15;97426.14;262612;1102;114618;-66
2021/05/05 10:57:18;;;;;;;7.70;1.88;;;;;;;21.61;34.20;97415.58;262695;1105;114713;-72
2021/05/05 11:02:58;;;;;;;4.43;2.28;;;;;;;21.67;33.79;97402.05;262841;1100;114818;-66
2021/05/05 11:08:05;;;;;;;4.90;2.15;;;;;;;21.62;33.60;97415.36;262423;1104;114671;-65
2021/05/05 11:13:22;;;;;;;20.28;3.95;;;;;;;21.75;33.55;97411.02;261692;1100;115303;-65
2021/05/05 11:18:29;;;;;;;4.78;2.10;;;;;;;21.94;33.52;97405.63;262069;1104;114584;-66
2021/05/05 11:23:36;;;;;;;3.53;1.98;;;;;;;22.06;33.30;97402.29;261734;1100;115064;-64
2021/05/05 11:28:58;;;;;;;4.50;1.78;;;;;;;22.09;33.13;97397.28;261492;1105;114603;-73
2021/05/05 11:34:03;;;;;;;3.13;1.55;;;;;;;22.23;33.19;97386.47;262461;1105;114472;-69
2021/05/05 11:39:20;;;;;;;3.85;1.93;;;;;;;22.22;32.79;97396.48;262948;1104;114916;-70
2021/05/05 11:44:39;;;;;;;3.70;1.70;;;;;;;22.02;32.53;97380.20;262066;1100;115666;-73
2021/05/05 11:49:49;;;;;;;6.63;2.07;;;;;;;21.76;32.40;97385.59;262397;1104;114685;-70
2021/05/05 11:54:58;;;;;;;3.65;1.88;;;;;;;21.53;32.44;97403.05;260799;1100;114727;-73
2021/05/05 12:00:17;;;;;;;6.50;2.20;;;;;;;21.25;32.73;97401.28;260589;1105;114896;-72
2021/05/05 12:05:32;;;;;;;4.63;1.93;;;;;;;20.95;34.17;97421.55;262814;1100;114557;-73
2021/05/05 12:11:00;;;;;;;4.63;1.90;;;;;;;20.54;34.58;97438.58;262093;1105;114483;-74
2021/05/05 12:16:08;;;;;;;3.03;1.90;;;;;;;20.36;35.29;97447.16;262815;1100;114632;-72
2021/05/05 12:21:14;;;;;;;5.18;1.90;;;;;;;20.42;35.76;97432.04;262843;1104;114524;-72
2021/05/05 12:26:30;;;;;;;7.33;2.53;;;;;;;20.57;36.01;97435.48;261915;1104;114791;-72
2021/05/05 12:31:37;;;;;;;6.50;2.30;;;;;;;20.50;36.43;97457.06;261918;1104;115120;-71
2021/05/05 12:36:48;;;;;;;9.43;3.57;;;;;;;20.30;36.69;97466.84;260498;1100;114707;-73
2021/05/05 12:41:53;;;;;;;8.55;3.90;;;;;;;20.21;37.69;97482.38;262104;1105;114655;-67
2021/05/05 12:47:06;;;;;;;6.08;3.18;;;;;;;20.01;37.95;97487.59;262706;1100;114447;-69
2021/05/05 12:52:32;;;;;;;8.07;3.60;;;;;;;19.65;38.83;97511.09;262918;1104;115101;-71
2021/05/05 12:57:35;;;;;;;8.58;4.30;;;;;;;19.39;39.62;97528.59;262852;1102;114390;-73
2021/05/05 13:02:41;;;;;;;7.70;3.73;;;;;;;19.13;40.06;97580.34;262644;1105;115398;-72
2021/05/05 13:07:45;;;;;;;8.03;3.27;;;;;;;18.81;40.82;97609.27;262537;1100;114934;-71
2021/05/05 13:34:19;;;;;;;5.03;1.68;;;;;;;16.42;43.27;97764.47;263123;1104;114429;-68
2021/05/05 13:39:36;;;;;;;5.37;2.30;;;;;;;15.97;43.68;97789.79;262552;1101;114562;-70
2021/05/05 13:49:58;;;;;;;4.88;2.43;;;;;;;15.73;45.39;97761.83;262561;1105;115269;-71
2021/05/05 13:55:07;;;;;;;4.48;2.38;;;;;;;15.76;46.01;97755.28;262231;1100;114378;-66
2021/05/05 14:00:15;;;;;;;4.73;2.73;;;;;;;15.93;46.45;97772.30;262535;1104;114794;-65
2021/05/05 14:05:25;;;;;;;4.45;2.60;;;;;;;15.96;46.27;97788.09;262453;1100;115196;-65
2021/05/05 14:10:32;;;;;;;6.53;3.08;;;;;;;15.95;46.41;97781.05;262779;1100;114703;-65
2021/05/05 14:15:39;;;;;;;4.75;2.53;;;;;;;15.65;46.69;97780.50;262527;1099;114683;-68
2021/05/05 14:20:43;;;;;;;3.03;1.70;;;;;;;15.13;47.23;97783.15;262628;1104;114639;-66
2021/05/05 14:25:49;;;;;;;4.18;1.98;;;;;;;14.77;47.92;97788.50;262539;1099;114509;-67
2021/05/05 14:30:53;;;;;;;3.15;1.58;;;;;;;14.49;48.87;97782.33;262585;1105;114827;-66
2021/05/05 14:35:57;;;;;;;3.03;1.68;;;;;;;14.25;49.36;97779.38;262844;1089;114697;-71
2021/05/05 14:41:05;;;;;;;3.23;1.58;;;;;;;14.04;49.81;97790.33;263438;1104;114407;-71
2021/05/05 14:51:25;;;;;;;3.83;2.13;;;;;;;13.81;50.69;97773.81;263390;1104;114904;-71
2021/05/05 14:56:29;;;;;;;7.08;2.10;;;;;;;13.68;51.54;97784.83;263079;1099;114433;-71
2021/05/05 15:01:32;;;;;;;4.33;2.00;;;;;;;13.60;51.25;97792.74;263457;1105;114679;-71
2021/05/05 15:06:38;;;;;;;4.00;2.30;;;;;;;13.47;51.84;97785.86;263089;1105;115340;-71
2021/05/05 15:38:27;;;;;;;7.23;3.55;;;;;;;13.18;53.50;97774.38;263417;1099;115138;-70
2021/05/05 15:43:56;;;;;;;6.38;4.10;;;;;;;13.13;54.21;97777.45;263408;1104;115311;-71
2021/05/05 15:48:55;;;;;;;6.88;3.78;;;;;;;13.08;54.83;97769.04;263279;1099;114546;-69
2021/05/05 15:53:58;;;;;;;7.05;4.20;;;;;;;13.08;54.46;97726.30;263052;1104;114413;-70
2021/05/05 15:59:05;;;;;;;8.78;4.20;;;;;;;13.08;55.19;97728.98;263421;1099;114549;-70
2021/05/05 16:20:17;;;;;;;4.45;3.08;;;;;;;13.03;55.23;97745.41;263429;1099;114701;-70
2021/05/05 17:12:25;;;;;;;8.90;3.20;;;;;;;12.72;55.99;97747.41;263431;1099;114519;-69
2021/05/05 17:17:42;;;;;;;6.15;3.10;;;;;;;12.74;55.38;97777.48;263402;1104;114907;-70
2021/05/05 17:22:53;;;;;;;5.65;3.23;;;;;;;12.77;56.00;97733.62;263218;1099;114628;-71
2021/05/05 17:28:10;;;;;;;8.85;3.68;;;;;;;12.74;55.55;97771.30;263331;1104;114863;-71
2021/05/05 18:10:24;;;;;;;10.08;4.40;;;;;;;12.34;54.42;97825.59;262449;1104;114727;-71
2021/05/05 18:20:59;;;;;;;10.05;4.50;;;;;;;12.33;54.10;97831.91;262819;1104;115875;-70
2021/05/05 18:31:23;;;;;;;8.13;4.60;;;;;;;12.35;53.79;97861.11;262504;1099;115133;-69
2021/05/05 18:36:26;;;;;;;8.00;4.75;;;;;;;12.35;52.88;97863.77;263251;1104;115292;-69
2021/05/05 18:41:44;;;;;;;7.85;4.05;;;;;;;12.32;53.00;97888.89;263215;1104;115000;-73
2021/05/05 20:33:01;;;;;;;6.80;2.80;;;;;;;11.58;51.74;97999.14;262792;1104;114992;-70
2021/05/05 20:43:45;;;;;;;3.98;2.10;;;;;;;11.51;50.71;98021.91;263314;1104;115000;-69
2021/05/05 21:37:53;;;;;;;5.23;2.50;;;;;;;10.90;51.76;98112.05;262578;1100;114963;-69
